sensor_id;sensor_type;location;lat;lon;timestamp;P1;durP1;ratioP1;P2;durP2;ratioP2
23404;SDS011;11875;49.356;2.718;2023-02-28T00:00:02;6.67;;;5.60;;
23404;SDS011;11875;49.356;2.718;2023-02-28T00:02:41;8.53;;;6.10;;
23404;SDS011;11875;49.356;2.718;2023-02-28T00:05:09;9.10;;;5.77;;
23404;SDS011;11875;49.356;2.718;2023-02-28T00:07:37;8.03;;;5.60;;
23404;SDS011;11875;49.356;2.718;2023-02-28T00:10:04;7.03;;;5.80;;
23404;SDS011;11875;49.356;2.718;2023-02-28T00:12:34;8.27;;;5.87;;
23404;SDS011;11875;49.356;2.718;2023-02-28T00:15:01;7.83;;;5.87;;
23404;SDS011;11875;49.356;2.718;2023-02-28T00:17:27;10.73;;;5.93;;
23404;SDS011;11875;49.356;2.718;2023-02-28T00:19:53;9.23;;;6.23;;
23404;SDS011;11875;49.356;2.718;2023-02-28T00:22:19;9.80;;;5.63;;
23404;SDS011;11875;49.356;2.718;2023-02-28T00:24:46;14.27;;;6.30;;
23404;SDS011;11875;49.356;2.718;2023-02-28T00:27:12;8.23;;;6.17;;
23404;SDS011;11875;49.356;2.718;2023-02-28T00:29:39;9.40;;;5.60;;
23404;SDS011;11875;49.356;2.718;2023-02-28T00:32:05;9.40;;;5.80;;
23404;SDS011;11875;49.356;2.718;2023-02-28T00:34:31;10.10;;;6.10;;
23404;SDS011;11875;49.356;2.718;2023-02-28T00:37:03;10.10;;;5.70;;
23404;SDS011;11875;49.356;2.718;2023-02-28T00:39:29;9.50;;;6.40;;
23404;SDS011;11875;49.356;2.718;2023-02-28T00:41:55;7.47;;;6.00;;
23404;SDS011;11875;49.356;2.718;2023-02-28T00:44:21;11.93;;;5.77;;
23404;SDS011;11875;49.356;2.718;2023-02-28T00:46:46;11.00;;;6.03;;
23404;SDS011;11875;49.356;2.718;2023-02-28T00:49:12;10.97;;;6.30;;
23404;SDS011;11875;49.356;2.718;2023-02-28T00:51:38;7.63;;;6.40;;
23404;SDS011;11875;49.356;2.718;2023-02-28T00:54:03;8.90;;;5.50;;
23404;SDS011;11875;49.356;2.718;2023-02-28T00:56:29;9.83;;;6.07;;
23404;SDS011;11875;49.356;2.718;2023-02-28T00:58:55;8.57;;;6.30;;
23404;SDS011;11875;49.356;2.718;2023-02-28T01:01:20;9.47;;;5.50;;
23404;SDS011;11875;49.356;2.718;2023-02-28T01:03:46;9.50;;;5.90;;
23404;SDS011;11875;49.356;2.718;2023-02-28T01:06:11;9.17;;;6.20;;
23404;SDS011;11875;49.356;2.718;2023-02-28T01:08:37;7.67;;;6.23;;
23404;SDS011;11875;49.356;2.718;2023-02-28T01:11:12;13.60;;;6.37;;
23404;SDS011;11875;49.356;2.718;2023-02-28T01:13:40;7.80;;;5.97;;
23404;SDS011;11875;49.356;2.718;2023-02-28T01:16:06;8.80;;;5.80;;
23404;SDS011;11875;49.356;2.718;2023-02-28T01:18:32;8.33;;;6.43;;
23404;SDS011;11875;49.356;2.718;2023-02-28T01:20:58;8.47;;;6.00;;
23404;SDS011;11875;49.356;2.718;2023-02-28T01:23:27;8.17;;;5.53;;
23404;SDS011;11875;49.356;2.718;2023-02-28T01:25:53;7.37;;;6.13;;
23404;SDS011;11875;49.356;2.718;2023-02-28T01:28:18;8.67;;;6.23;;
23404;SDS011;11875;49.356;2.718;2023-02-28T01:30:51;7.53;;;5.63;;
23404;SDS011;11875;49.356;2.718;2023-02-28T01:33:16;12.23;;;5.83;;
23404;SDS011;11875;49.356;2.718;2023-02-28T01:35:42;9.43;;;5.53;;
23404;SDS011;11875;49.356;2.718;2023-02-28T01:38:08;7.23;;;5.77;;
23404;SDS011;11875;49.356;2.718;2023-02-28T01:40:33;11.27;;;6.07;;
23404;SDS011;11875;49.356;2.718;2023-02-28T01:42:59;7.50;;;5.80;;
23404;SDS011;11875;49.356;2.718;2023-02-28T01:45:31;9.50;;;5.93;;
23404;SDS011;11875;49.356;2.718;2023-02-28T01:48:00;8.03;;;5.70;;
23404;SDS011;11875;49.356;2.718;2023-02-28T01:50:29;9.07;;;5.67;;
23404;SDS011;11875;49.356;2.718;2023-02-28T01:53:00;8.93;;;5.97;;
23404;SDS011;11875;49.356;2.718;2023-02-28T01:55:28;10.10;;;6.20;;
23404;SDS011;11875;49.356;2.718;2023-02-28T01:57:56;7.90;;;6.20;;
23404;SDS011;11875;49.356;2.718;2023-02-28T02:00:25;8.17;;;5.97;;
23404;SDS011;11875;49.356;2.718;2023-02-28T02:02:55;9.37;;;6.10;;
23404;SDS011;11875;49.356;2.718;2023-02-28T02:05:25;8.33;;;5.93;;
23404;SDS011;11875;49.356;2.718;2023-02-28T02:08:12;7.77;;;6.03;;
23404;SDS011;11875;49.356;2.718;2023-02-28T02:10:57;8.23;;;5.40;;
23404;SDS011;11875;49.356;2.718;2023-02-28T02:18:49;8.53;;;5.40;;
23404;SDS011;11875;49.356;2.718;2023-02-28T02:21:44;8.90;;;6.43;;
23404;SDS011;11875;49.356;2.718;2023-02-28T02:38:35;10.17;;;6.67;;
23404;SDS011;11875;49.356;2.718;2023-02-28T02:41:13;8.23;;;6.47;;
23404;SDS011;11875;49.356;2.718;2023-02-28T02:46:23;13.00;;;6.90;;
23404;SDS011;11875;49.356;2.718;2023-02-28T02:49:03;8.13;;;6.10;;
23404;SDS011;11875;49.356;2.718;2023-02-28T02:51:33;11.83;;;7.50;;
23404;SDS011;11875;49.356;2.718;2023-02-28T02:54:02;10.20;;;7.00;;
23404;SDS011;11875;49.356;2.718;2023-02-28T02:56:35;11.57;;;7.07;;
23404;SDS011;11875;49.356;2.718;2023-02-28T02:59:04;11.53;;;7.70;;
23404;SDS011;11875;49.356;2.718;2023-02-28T03:01:34;9.33;;;6.90;;
23404;SDS011;11875;49.356;2.718;2023-02-28T03:04:03;11.10;;;7.03;;
23404;SDS011;11875;49.356;2.718;2023-02-28T03:06:32;10.30;;;6.63;;
23404;SDS011;11875;49.356;2.718;2023-02-28T03:08:58;10.67;;;7.00;;
23404;SDS011;11875;49.356;2.718;2023-02-28T03:11:25;10.10;;;6.90;;
23404;SDS011;11875;49.356;2.718;2023-02-28T03:14:04;11.37;;;7.30;;
23404;SDS011;11875;49.356;2.718;2023-02-28T03:17:25;9.20;;;7.00;;
23404;SDS011;11875;49.356;2.718;2023-02-28T03:33:20;12.93;;;8.30;;
23404;SDS011;11875;49.356;2.718;2023-02-28T03:35:56;12.20;;;7.93;;
23404;SDS011;11875;49.356;2.718;2023-02-28T03:40:55;11.53;;;7.70;;
23404;SDS011;11875;49.356;2.718;2023-02-28T03:43:28;11.90;;;7.30;;
23404;SDS011;11875;49.356;2.718;2023-02-28T03:45:58;10.83;;;7.63;;
23404;SDS011;11875;49.356;2.718;2023-02-28T03:48:45;18.60;;;8.27;;
23404;SDS011;11875;49.356;2.718;2023-02-28T03:51:17;16.67;;;7.40;;
23404;SDS011;11875;49.356;2.718;2023-02-28T03:54:08;11.43;;;7.67;;
23404;SDS011;11875;49.356;2.718;2023-02-28T03:56:38;11.87;;;7.50;;
23404;SDS011;11875;49.356;2.718;2023-02-28T03:59:19;13.00;;;8.07;;
23404;SDS011;11875;49.356;2.718;2023-02-28T04:01:59;12.67;;;8.20;;
23404;SDS011;11875;49.356;2.718;2023-02-28T04:04:24;12.17;;;8.50;;
23404;SDS011;11875;49.356;2.718;2023-02-28T04:06:51;9.73;;;7.17;;
23404;SDS011;11875;49.356;2.718;2023-02-28T04:09:17;12.13;;;8.27;;
23404;SDS011;11875;49.356;2.718;2023-02-28T04:11:48;12.63;;;8.10;;
23404;SDS011;11875;49.356;2.718;2023-02-28T04:14:17;14.37;;;8.77;;
23404;SDS011;11875;49.356;2.718;2023-02-28T04:16:43;18.93;;;8.30;;
23404;SDS011;11875;49.356;2.718;2023-02-28T04:19:10;13.17;;;8.37;;
23404;SDS011;11875;49.356;2.718;2023-02-28T04:21:38;15.03;;;9.30;;
23404;SDS011;11875;49.356;2.718;2023-02-28T04:24:06;16.03;;;10.00;;
23404;SDS011;11875;49.356;2.718;2023-02-28T04:26:34;17.60;;;10.77;;
23404;SDS011;11875;49.356;2.718;2023-02-28T04:29:03;16.63;;;10.37;;
23404;SDS011;11875;49.356;2.718;2023-02-28T04:31:30;23.63;;;11.13;;
23404;SDS011;11875;49.356;2.718;2023-02-28T04:33:55;18.57;;;9.90;;
23404;SDS011;11875;49.356;2.718;2023-02-28T04:36:21;13.07;;;9.30;;
23404;SDS011;11875;49.356;2.718;2023-02-28T04:38:48;13.57;;;8.93;;
23404;SDS011;11875;49.356;2.718;2023-02-28T04:41:14;14.10;;;9.13;;
23404;SDS011;11875;49.356;2.718;2023-02-28T04:43:40;14.33;;;9.13;;
23404;SDS011;11875;49.356;2.718;2023-02-28T04:46:06;13.27;;;9.87;;
23404;SDS011;11875;49.356;2.718;2023-02-28T04:48:34;21.47;;;12.77;;
23404;SDS011;11875;49.356;2.718;2023-02-28T04:51:03;28.90;;;14.80;;
23404;SDS011;11875;49.356;2.718;2023-02-28T04:53:30;24.77;;;15.57;;
23404;SDS011;11875;49.356;2.718;2023-02-28T04:55:56;27.47;;;15.27;;
23404;SDS011;11875;49.356;2.718;2023-02-28T04:58:22;17.20;;;10.40;;
23404;SDS011;11875;49.356;2.718;2023-02-28T05:00:48;17.50;;;10.70;;
23404;SDS011;11875;49.356;2.718;2023-02-28T05:03:17;17.40;;;10.37;;
23404;SDS011;11875;49.356;2.718;2023-02-28T05:05:43;16.40;;;11.13;;
23404;SDS011;11875;49.356;2.718;2023-02-28T05:08:09;17.20;;;10.60;;
23404;SDS011;11875;49.356;2.718;2023-02-28T05:10:36;17.57;;;10.10;;
23404;SDS011;11875;49.356;2.718;2023-02-28T05:13:02;19.80;;;10.70;;
23404;SDS011;11875;49.356;2.718;2023-02-28T05:15:28;15.57;;;10.40;;
23404;SDS011;11875;49.356;2.718;2023-02-28T05:17:53;16.00;;;10.70;;
23404;SDS011;11875;49.356;2.718;2023-02-28T05:20:19;15.47;;;11.10;;
23404;SDS011;11875;49.356;2.718;2023-02-28T05:22:45;18.33;;;11.03;;
23404;SDS011;11875;49.356;2.718;2023-02-28T05:25:12;16.60;;;11.83;;
23404;SDS011;11875;49.356;2.718;2023-02-28T05:27:41;20.23;;;12.73;;
23404;SDS011;11875;49.356;2.718;2023-02-28T05:30:07;20.73;;;12.87;;
23404;SDS011;11875;49.356;2.718;2023-02-28T05:32:35;24.60;;;17.10;;
23404;SDS011;11875;49.356;2.718;2023-02-28T05:35:07;19.70;;;11.83;;
23404;SDS011;11875;49.356;2.718;2023-02-28T05:37:35;21.40;;;11.60;;
23404;SDS011;11875;49.356;2.718;2023-02-28T05:40:01;17.97;;;10.43;;
23404;SDS011;11875;49.356;2.718;2023-02-28T05:42:31;15.40;;;10.10;;
23404;SDS011;11875;49.356;2.718;2023-02-28T05:44:56;23.30;;;14.27;;
23404;SDS011;11875;49.356;2.718;2023-02-28T05:47:23;22.00;;;11.93;;
23404;SDS011;11875;49.356;2.718;2023-02-28T05:49:49;22.43;;;11.87;;
23404;SDS011;11875;49.356;2.718;2023-02-28T05:52:15;31.83;;;17.17;;
23404;SDS011;11875;49.356;2.718;2023-02-28T05:54:41;22.23;;;13.00;;
23404;SDS011;11875;49.356;2.718;2023-02-28T05:57:06;19.83;;;11.93;;
23404;SDS011;11875;49.356;2.718;2023-02-28T05:59:32;19.13;;;12.00;;
23404;SDS011;11875;49.356;2.718;2023-02-28T06:01:58;22.77;;;12.83;;
23404;SDS011;11875;49.356;2.718;2023-02-28T06:04:23;20.20;;;13.40;;
23404;SDS011;11875;49.356;2.718;2023-02-28T06:06:49;24.60;;;13.70;;
23404;SDS011;11875;49.356;2.718;2023-02-28T06:09:15;22.33;;;12.83;;
23404;SDS011;11875;49.356;2.718;2023-02-28T06:11:42;17.13;;;11.13;;
23404;SDS011;11875;49.356;2.718;2023-02-28T06:14:12;24.93;;;12.73;;
23404;SDS011;11875;49.356;2.718;2023-02-28T06:16:41;19.00;;;11.07;;
23404;SDS011;11875;49.356;2.718;2023-02-28T06:19:08;24.30;;;12.23;;
23404;SDS011;11875;49.356;2.718;2023-02-28T06:21:34;20.77;;;12.63;;
23404;SDS011;11875;49.356;2.718;2023-02-28T06:23:59;19.37;;;11.87;;
23404;SDS011;11875;49.356;2.718;2023-02-28T06:26:25;20.70;;;12.30;;
23404;SDS011;11875;49.356;2.718;2023-02-28T06:28:51;21.33;;;12.60;;
23404;SDS011;11875;49.356;2.718;2023-02-28T06:31:17;18.20;;;12.23;;
23404;SDS011;11875;49.356;2.718;2023-02-28T06:33:44;25.77;;;13.77;;
23404;SDS011;11875;49.356;2.718;2023-02-28T06:36:11;19.20;;;11.37;;
23404;SDS011;11875;49.356;2.718;2023-02-28T06:38:38;22.70;;;13.10;;
23404;SDS011;11875;49.356;2.718;2023-02-28T06:41:04;23.43;;;12.30;;
23404;SDS011;11875;49.356;2.718;2023-02-28T06:43:32;25.80;;;13.97;;
23404;SDS011;11875;49.356;2.718;2023-02-28T06:46:00;18.47;;;12.20;;
23404;SDS011;11875;49.356;2.718;2023-02-28T06:48:26;18.30;;;12.17;;
23404;SDS011;11875;49.356;2.718;2023-02-28T06:51:00;19.87;;;12.67;;
23404;SDS011;11875;49.356;2.718;2023-02-28T06:53:30;19.27;;;11.70;;
23404;SDS011;11875;49.356;2.718;2023-02-28T06:55:55;25.40;;;11.33;;
23404;SDS011;11875;49.356;2.718;2023-02-28T06:58:21;20.67;;;11.50;;
23404;SDS011;11875;49.356;2.718;2023-02-28T07:00:49;21.40;;;11.23;;
23404;SDS011;11875;49.356;2.718;2023-02-28T07:03:16;22.17;;;11.23;;
23404;SDS011;11875;49.356;2.718;2023-02-28T07:05:43;16.43;;;11.07;;
23404;SDS011;11875;49.356;2.718;2023-02-28T07:08:09;16.40;;;11.17;;
23404;SDS011;11875;49.356;2.718;2023-02-28T07:10:36;19.53;;;12.17;;
23404;SDS011;11875;49.356;2.718;2023-02-28T07:13:03;18.80;;;12.37;;
23404;SDS011;11875;49.356;2.718;2023-02-28T07:15:29;19.20;;;11.87;;
23404;SDS011;11875;49.356;2.718;2023-02-28T07:17:55;21.07;;;12.33;;
23404;SDS011;11875;49.356;2.718;2023-02-28T07:20:21;20.40;;;12.50;;
23404;SDS011;11875;49.356;2.718;2023-02-28T07:22:48;17.87;;;11.57;;
23404;SDS011;11875;49.356;2.718;2023-02-28T07:25:20;19.87;;;11.90;;
23404;SDS011;11875;49.356;2.718;2023-02-28T07:27:50;14.67;;;11.17;;
23404;SDS011;11875;49.356;2.718;2023-02-28T07:30:16;16.87;;;11.50;;
23404;SDS011;11875;49.356;2.718;2023-02-28T07:32:42;16.73;;;11.53;;
23404;SDS011;11875;49.356;2.718;2023-02-28T07:35:07;17.77;;;11.20;;
23404;SDS011;11875;49.356;2.718;2023-02-28T07:37:33;18.60;;;10.40;;
23404;SDS011;11875;49.356;2.718;2023-02-28T07:40:02;17.83;;;11.03;;
23404;SDS011;11875;49.356;2.718;2023-02-28T07:42:33;16.60;;;10.50;;
23404;SDS011;11875;49.356;2.718;2023-02-28T07:45:03;20.37;;;11.53;;
23404;SDS011;11875;49.356;2.718;2023-02-28T07:47:30;17.20;;;10.80;;
23404;SDS011;11875;49.356;2.718;2023-02-28T07:49:56;18.60;;;11.60;;
23404;SDS011;11875;49.356;2.718;2023-02-28T07:52:22;17.80;;;10.73;;
23404;SDS011;11875;49.356;2.718;2023-02-28T07:54:49;18.10;;;10.67;;
23404;SDS011;11875;49.356;2.718;2023-02-28T07:57:15;15.60;;;10.13;;
23404;SDS011;11875;49.356;2.718;2023-02-28T07:59:41;14.03;;;9.47;;
23404;SDS011;11875;49.356;2.718;2023-02-28T08:02:06;18.87;;;11.60;;
23404;SDS011;11875;49.356;2.718;2023-02-28T08:04:37;13.23;;;10.10;;
23404;SDS011;11875;49.356;2.718;2023-02-28T08:07:03;19.40;;;9.90;;
23404;SDS011;11875;49.356;2.718;2023-02-28T08:09:28;17.17;;;9.10;;
23404;SDS011;11875;49.356;2.718;2023-02-28T08:11:54;14.27;;;9.73;;
23404;SDS011;11875;49.356;2.718;2023-02-28T08:14:20;11.60;;;8.93;;
23404;SDS011;11875;49.356;2.718;2023-02-28T08:16:46;10.83;;;8.40;;
23404;SDS011;11875;49.356;2.718;2023-02-28T08:19:11;11.60;;;8.83;;
23404;SDS011;11875;49.356;2.718;2023-02-28T08:21:37;13.97;;;8.43;;
23404;SDS011;11875;49.356;2.718;2023-02-28T08:24:04;12.60;;;8.87;;
23404;SDS011;11875;49.356;2.718;2023-02-28T08:26:30;19.10;;;8.40;;
23404;SDS011;11875;49.356;2.718;2023-02-28T08:28:56;15.83;;;9.10;;
23404;SDS011;11875;49.356;2.718;2023-02-28T08:31:22;12.30;;;8.10;;
23404;SDS011;11875;49.356;2.718;2023-02-28T08:33:48;13.93;;;7.53;;
23404;SDS011;11875;49.356;2.718;2023-02-28T08:36:16;9.57;;;7.53;;
23404;SDS011;11875;49.356;2.718;2023-02-28T08:38:42;9.93;;;7.33;;
23404;SDS011;11875;49.356;2.718;2023-02-28T08:41:09;13.33;;;7.63;;
23404;SDS011;11875;49.356;2.718;2023-02-28T08:43:36;12.10;;;7.90;;
23404;SDS011;11875;49.356;2.718;2023-02-28T08:46:02;9.80;;;7.50;;
23404;SDS011;11875;49.356;2.718;2023-02-28T08:48:29;12.10;;;7.70;;
23404;SDS011;11875;49.356;2.718;2023-02-28T08:50:57;10.87;;;7.73;;
23404;SDS011;11875;49.356;2.718;2023-02-28T08:53:27;10.53;;;7.47;;
23404;SDS011;11875;49.356;2.718;2023-02-28T08:55:59;9.50;;;7.33;;
23404;SDS011;11875;49.356;2.718;2023-02-28T08:58:26;10.03;;;7.47;;
23404;SDS011;11875;49.356;2.718;2023-02-28T09:00:53;8.07;;;7.10;;
23404;SDS011;11875;49.356;2.718;2023-02-28T09:03:19;11.50;;;6.77;;
23404;SDS011;11875;49.356;2.718;2023-02-28T09:05:52;9.40;;;6.20;;
23404;SDS011;11875;49.356;2.718;2023-02-28T09:08:23;9.13;;;6.07;;
23404;SDS011;11875;49.356;2.718;2023-02-28T09:10:50;12.20;;;5.93;;
23404;SDS011;11875;49.356;2.718;2023-02-28T09:13:16;7.63;;;5.80;;
23404;SDS011;11875;49.356;2.718;2023-02-28T09:15:42;9.97;;;6.33;;
23404;SDS011;11875;49.356;2.718;2023-02-28T09:18:07;7.63;;;5.97;;
23404;SDS011;11875;49.356;2.718;2023-02-28T09:20:33;9.47;;;6.03;;
23404;SDS011;11875;49.356;2.718;2023-02-28T09:22:59;8.27;;;5.57;;
23404;SDS011;11875;49.356;2.718;2023-02-28T09:25:24;7.83;;;5.60;;
23404;SDS011;11875;49.356;2.718;2023-02-28T09:27:50;5.53;;;4.93;;
23404;SDS011;11875;49.356;2.718;2023-02-28T09:30:15;7.20;;;5.10;;
23404;SDS011;11875;49.356;2.718;2023-02-28T09:32:41;7.53;;;5.37;;
23404;SDS011;11875;49.356;2.718;2023-02-28T09:35:07;9.23;;;5.73;;
23404;SDS011;11875;49.356;2.718;2023-02-28T09:37:38;7.47;;;5.00;;
23404;SDS011;11875;49.356;2.718;2023-02-28T09:40:04;8.50;;;5.23;;
23404;SDS011;11875;49.356;2.718;2023-02-28T09:42:31;21.03;;;5.67;;
23404;SDS011;11875;49.356;2.718;2023-02-28T09:44:59;15.33;;;6.10;;
23404;SDS011;11875;49.356;2.718;2023-02-28T09:47:36;7.60;;;5.23;;
23404;SDS011;11875;49.356;2.718;2023-02-28T09:52:57;9.40;;;5.30;;
23404;SDS011;11875;49.356;2.718;2023-02-28T09:55:33;6.50;;;5.43;;
23404;SDS011;11875;49.356;2.718;2023-02-28T09:58:10;6.33;;;4.80;;
23404;SDS011;11875;49.356;2.718;2023-02-28T10:01:12;6.70;;;4.83;;
23404;SDS011;11875;49.356;2.718;2023-02-28T10:03:59;7.67;;;4.90;;
23404;SDS011;11875;49.356;2.718;2023-02-28T10:06:35;5.73;;;4.83;;
23404;SDS011;11875;49.356;2.718;2023-02-28T10:09:08;4.80;;;4.30;;
23404;SDS011;11875;49.356;2.718;2023-02-28T10:11:38;7.57;;;4.87;;
23404;SDS011;11875;49.356;2.718;2023-02-28T10:16:50;5.70;;;4.77;;
23404;SDS011;11875;49.356;2.718;2023-02-28T10:22:17;5.37;;;4.43;;
23404;SDS011;11875;49.356;2.718;2023-02-28T10:24:54;6.03;;;4.83;;
23404;SDS011;11875;49.356;2.718;2023-02-28T10:27:26;18.17;;;4.90;;
23404;SDS011;11875;49.356;2.718;2023-02-28T10:30:01;6.33;;;4.57;;
23404;SDS011;11875;49.356;2.718;2023-02-28T10:32:32;5.87;;;4.50;;
23404;SDS011;11875;49.356;2.718;2023-02-28T10:35:18;13.33;;;5.17;;
23404;SDS011;11875;49.356;2.718;2023-02-28T10:37:47;10.77;;;4.70;;
23404;SDS011;11875;49.356;2.718;2023-02-28T10:43:05;6.47;;;4.10;;
23404;SDS011;11875;49.356;2.718;2023-02-28T10:45:33;7.30;;;4.07;;
23404;SDS011;11875;49.356;2.718;2023-02-28T10:50:51;3.60;;;3.20;;
23404;SDS011;11875;49.356;2.718;2023-02-28T11:01:16;6.60;;;3.70;;
23404;SDS011;11875;49.356;2.718;2023-02-28T11:03:43;3.50;;;2.73;;
23404;SDS011;11875;49.356;2.718;2023-02-28T11:06:16;3.40;;;2.50;;
23404;SDS011;11875;49.356;2.718;2023-02-28T11:08:51;4.77;;;3.20;;
23404;SDS011;11875;49.356;2.718;2023-02-28T11:11:20;9.03;;;3.50;;
23404;SDS011;11875;49.356;2.718;2023-02-28T11:13:48;5.27;;;3.30;;
23404;SDS011;11875;49.356;2.718;2023-02-28T11:16:17;4.60;;;3.40;;
23404;SDS011;11875;49.356;2.718;2023-02-28T11:26:52;4.00;;;3.50;;
23404;SDS011;11875;49.356;2.718;2023-02-28T11:29:23;4.30;;;3.50;;
23404;SDS011;11875;49.356;2.718;2023-02-28T11:32:11;4.93;;;3.30;;
23404;SDS011;11875;49.356;2.718;2023-02-28T11:34:59;3.20;;;2.90;;
23404;SDS011;11875;49.356;2.718;2023-02-28T11:37:28;28.87;;;5.80;;
23404;SDS011;11875;49.356;2.718;2023-02-28T11:39:56;6.23;;;3.40;;
23404;SDS011;11875;49.356;2.718;2023-02-28T11:50:24;4.20;;;3.20;;
23404;SDS011;11875;49.356;2.718;2023-02-28T11:52:56;3.67;;;2.87;;
23404;SDS011;11875;49.356;2.718;2023-02-28T11:55:36;6.33;;;3.17;;
23404;SDS011;11875;49.356;2.718;2023-02-28T12:00:57;4.40;;;3.47;;
23404;SDS011;11875;49.356;2.718;2023-02-28T12:03:45;4.47;;;3.50;;
23404;SDS011;11875;49.356;2.718;2023-02-28T12:06:25;4.17;;;3.70;;
23404;SDS011;11875;49.356;2.718;2023-02-28T12:11:45;5.47;;;3.53;;
23404;SDS011;11875;49.356;2.718;2023-02-28T12:22:31;5.23;;;4.30;;
23404;SDS011;11875;49.356;2.718;2023-02-28T12:25:21;5.27;;;3.57;;
23404;SDS011;11875;49.356;2.718;2023-02-28T12:27:56;7.77;;;3.60;;
23404;SDS011;11875;49.356;2.718;2023-02-28T12:30:32;5.00;;;3.57;;
23404;SDS011;11875;49.356;2.718;2023-02-28T12:33:07;5.77;;;4.40;;
23404;SDS011;11875;49.356;2.718;2023-02-28T12:35:38;6.87;;;3.70;;
23404;SDS011;11875;49.356;2.718;2023-02-28T12:38:13;4.60;;;3.10;;
23404;SDS011;11875;49.356;2.718;2023-02-28T12:40:45;7.80;;;4.73;;
23404;SDS011;11875;49.356;2.718;2023-02-28T12:43:16;11.63;;;4.67;;
23404;SDS011;11875;49.356;2.718;2023-02-28T12:46:17;3.80;;;3.40;;
23404;SDS011;11875;49.356;2.718;2023-02-28T12:48:48;6.13;;;5.27;;
23404;SDS011;11875;49.356;2.718;2023-02-28T12:51:24;18.43;;;12.60;;
23404;SDS011;11875;49.356;2.718;2023-02-28T12:59:10;13.73;;;10.07;;
23404;SDS011;11875;49.356;2.718;2023-02-28T13:01:57;8.63;;;4.90;;
23404;SDS011;11875;49.356;2.718;2023-02-28T13:04:46;5.73;;;4.47;;
23404;SDS011;11875;49.356;2.718;2023-02-28T13:07:39;22.27;;;15.00;;
23404;SDS011;11875;49.356;2.718;2023-02-28T13:10:21;7.83;;;4.97;;
23404;SDS011;11875;49.356;2.718;2023-02-28T13:12:48;4.20;;;3.10;;
23404;SDS011;11875;49.356;2.718;2023-02-28T13:15:17;5.97;;;3.43;;
23404;SDS011;11875;49.356;2.718;2023-02-28T13:17:59;5.77;;;3.70;;
23404;SDS011;11875;49.356;2.718;2023-02-28T13:20:27;4.97;;;4.03;;
23404;SDS011;11875;49.356;2.718;2023-02-28T13:22:58;4.70;;;3.43;;
23404;SDS011;11875;49.356;2.718;2023-02-28T13:28:13;3.37;;;3.03;;
23404;SDS011;11875;49.356;2.718;2023-02-28T13:31:14;3.90;;;3.27;;
23404;SDS011;11875;49.356;2.718;2023-02-28T13:36:23;5.53;;;3.70;;
23404;SDS011;11875;49.356;2.718;2023-02-28T13:38:55;3.53;;;3.20;;
23404;SDS011;11875;49.356;2.718;2023-02-28T13:44:04;5.40;;;3.43;;
23404;SDS011;11875;49.356;2.718;2023-02-28T13:46:31;4.73;;;3.67;;
23404;SDS011;11875;49.356;2.718;2023-02-28T13:52:07;4.73;;;3.80;;
23404;SDS011;11875;49.356;2.718;2023-02-28T14:05:44;18.23;;;10.77;;
23404;SDS011;11875;49.356;2.718;2023-02-28T14:08:18;5.77;;;3.70;;
23404;SDS011;11875;49.356;2.718;2023-02-28T14:10:49;4.47;;;3.60;;
23404;SDS011;11875;49.356;2.718;2023-02-28T14:16:21;4.20;;;3.60;;
23404;SDS011;11875;49.356;2.718;2023-02-28T14:19:01;3.77;;;3.37;;
23404;SDS011;11875;49.356;2.718;2023-02-28T14:21:35;7.00;;;3.80;;
23404;SDS011;11875;49.356;2.718;2023-02-28T14:35:27;3.73;;;3.23;;
23404;SDS011;11875;49.356;2.718;2023-02-28T14:38:24;4.07;;;3.30;;
23404;SDS011;11875;49.356;2.718;2023-02-28T14:40:53;3.97;;;3.50;;
23404;SDS011;11875;49.356;2.718;2023-02-28T14:43:23;4.63;;;3.90;;
23404;SDS011;11875;49.356;2.718;2023-02-28T14:45:58;3.70;;;3.40;;
23404;SDS011;11875;49.356;2.718;2023-02-28T14:48:26;5.93;;;4.20;;
23404;SDS011;11875;49.356;2.718;2023-02-28T14:50:53;7.27;;;3.57;;
23404;SDS011;11875;49.356;2.718;2023-02-28T14:53:22;4.17;;;3.73;;
23404;SDS011;11875;49.356;2.718;2023-02-28T14:55:50;4.17;;;3.73;;
23404;SDS011;11875;49.356;2.718;2023-02-28T14:58:30;7.77;;;3.93;;
23404;SDS011;11875;49.356;2.718;2023-02-28T15:00:59;4.47;;;3.63;;
23404;SDS011;11875;49.356;2.718;2023-02-28T15:03:36;5.13;;;3.67;;
23404;SDS011;11875;49.356;2.718;2023-02-28T15:08:42;4.87;;;3.67;;
23404;SDS011;11875;49.356;2.718;2023-02-28T15:11:11;8.30;;;4.30;;
23404;SDS011;11875;49.356;2.718;2023-02-28T15:13:48;68.67;;;7.43;;
23404;SDS011;11875;49.356;2.718;2023-02-28T15:19:03;3.77;;;3.13;;
23404;SDS011;11875;49.356;2.718;2023-02-28T15:21:38;4.67;;;3.40;;
23404;SDS011;11875;49.356;2.718;2023-02-28T15:24:07;4.07;;;3.50;;
23404;SDS011;11875;49.356;2.718;2023-02-28T15:26:41;5.20;;;3.43;;
23404;SDS011;11875;49.356;2.718;2023-02-28T15:31:44;4.67;;;3.60;;
23404;SDS011;11875;49.356;2.718;2023-02-28T15:34:20;4.57;;;3.50;;
23404;SDS011;11875;49.356;2.718;2023-02-28T15:36:51;7.43;;;3.73;;
23404;SDS011;11875;49.356;2.718;2023-02-28T15:39:22;5.70;;;3.57;;
23404;SDS011;11875;49.356;2.718;2023-02-28T15:41:49;5.00;;;3.60;;
23404;SDS011;11875;49.356;2.718;2023-02-28T15:44:17;4.90;;;3.80;;
23404;SDS011;11875;49.356;2.718;2023-02-28T15:47:16;3.53;;;3.17;;
23404;SDS011;11875;49.356;2.718;2023-02-28T15:49:47;3.77;;;3.20;;
23404;SDS011;11875;49.356;2.718;2023-02-28T15:52:17;5.20;;;3.70;;
23404;SDS011;11875;49.356;2.718;2023-02-28T15:54:46;6.20;;;3.57;;
23404;SDS011;11875;49.356;2.718;2023-02-28T15:57:30;4.67;;;3.80;;
23404;SDS011;11875;49.356;2.718;2023-02-28T15:59:57;4.93;;;3.67;;
23404;SDS011;11875;49.356;2.718;2023-02-28T16:02:36;4.97;;;3.87;;
23404;SDS011;11875;49.356;2.718;2023-02-28T16:07:31;4.40;;;3.77;;
23404;SDS011;11875;49.356;2.718;2023-02-28T16:09:57;9.57;;;3.80;;
23404;SDS011;11875;49.356;2.718;2023-02-28T16:12:31;3.53;;;3.00;;
23404;SDS011;11875;49.356;2.718;2023-02-28T16:14:59;6.87;;;3.57;;
23404;SDS011;11875;49.356;2.718;2023-02-28T16:17:28;4.70;;;3.77;;
23404;SDS011;11875;49.356;2.718;2023-02-28T16:19:57;5.23;;;3.67;;
23404;SDS011;11875;49.356;2.718;2023-02-28T16:22:24;4.03;;;3.30;;
23404;SDS011;11875;49.356;2.718;2023-02-28T16:24:50;4.03;;;3.23;;
23404;SDS011;11875;49.356;2.718;2023-02-28T16:27:17;4.90;;;3.70;;
23404;SDS011;11875;49.356;2.718;2023-02-28T16:29:46;5.90;;;3.20;;
23404;SDS011;11875;49.356;2.718;2023-02-28T16:32:13;6.50;;;4.30;;
23404;SDS011;11875;49.356;2.718;2023-02-28T16:34:40;7.63;;;3.70;;
23404;SDS011;11875;49.356;2.718;2023-02-28T16:37:10;5.77;;;3.67;;
23404;SDS011;11875;49.356;2.718;2023-02-28T16:39:37;3.90;;;3.20;;
23404;SDS011;11875;49.356;2.718;2023-02-28T16:42:03;10.23;;;3.30;;
23404;SDS011;11875;49.356;2.718;2023-02-28T16:47:01;5.90;;;3.90;;
23404;SDS011;11875;49.356;2.718;2023-02-28T16:49:28;3.90;;;3.50;;
23404;SDS011;11875;49.356;2.718;2023-02-28T16:51:56;5.63;;;4.00;;
23404;SDS011;11875;49.356;2.718;2023-02-28T16:54:22;5.30;;;3.20;;
23404;SDS011;11875;49.356;2.718;2023-02-28T16:56:47;5.67;;;3.93;;
23404;SDS011;11875;49.356;2.718;2023-02-28T16:59:15;6.50;;;4.20;;
23404;SDS011;11875;49.356;2.718;2023-02-28T17:01:45;6.57;;;4.67;;
23404;SDS011;11875;49.356;2.718;2023-02-28T17:04:11;8.17;;;4.83;;
23404;SDS011;11875;49.356;2.718;2023-02-28T17:06:37;6.07;;;4.43;;
23404;SDS011;11875;49.356;2.718;2023-02-28T17:09:03;4.10;;;3.70;;
23404;SDS011;11875;49.356;2.718;2023-02-28T17:11:29;4.67;;;3.57;;
23404;SDS011;11875;49.356;2.718;2023-02-28T17:13:54;4.33;;;3.90;;
23404;SDS011;11875;49.356;2.718;2023-02-28T17:16:23;4.03;;;3.53;;
23404;SDS011;11875;49.356;2.718;2023-02-28T17:18:54;4.73;;;3.60;;